Gold Canyon, Arizona
Current Conditions -  °F | °C
As of 9:50 AM on Sunday 23 Nov 2014 (Local Time) from KIWA Reporting Station
Few Clouds Few Clouds  
Wind Chill: 57°   Ceiling: Unl
Heat Index: 57°   Visibility: 45mi
Dew Point: 32°   Wind: 3mph
Humidity: 38%   Direction: 200°SSW
Pressure: 30.08"   Gusts: NA
Location:  33.2782°N, 111.363°W
Report Text: KIWA 231650Z 20003KT 45SM FEW250 14/00 A3008
Loading
Personal Weather Stations






























Interactive Weather Map New forecast layout! Learn more

10-Day Weather Forecast

Advertisements
Track Severe Weather on mobile